M I D A S
Marine Information and Data Acquisition System
Tripno 1608 of the Zeeleeuw from 2008-11-07 07:51:46 to 2008-11-07 12:14:58
Back to CruiseResearch ActivitiesStationsMapUnderway DataData graphs

EquipmentUnitsComment
TimeDGPSUTC
LatitudeDGPSDM.mWGS84
LongitudeDGPSDM.mWGS84
TemperatureSBE03/SBE38deg celciusITS90
ConductivitySBE21S/mITS90
SalinitySBE21 Practical Salinity Units
ChlorophylAChelsea fluorimeterg/lCalibrated in Aceton
Missing or incorrect values are displayed as -999
Sea surface data collected by the RV Zeeleeuw from 2008-11-07 07:19:33 to 2008-11-07 12:28:13
Time Latitude Longitude Temperature Conductivity Salinity ChlorophylA
2008-11-07 07:20:38 51°13.623 2°56.049 -999 0.070714 0.391495 -1.035392
2008-11-07 07:21:38 51°13.623 2°56.048 -999 0.070096 0.388032 -1.035392
2008-11-07 07:22:38 51°13.624 2°56.049 -999 0.069788 0.386336 -1.035392
2008-11-07 07:23:38 51°13.624 2°56.048 -999 0.06989 0.386994 -1.035392
2008-11-07 07:24:38 51°13.624 2°56.049 -999 0.069685 0.385886 -1.035392
2008-11-07 07:25:38 51°13.625 2°56.048 -999 0.069067 0.382436 -1.035392
2008-11-07 07:26:38 51°13.625 2°56.048 -999 0.068553 0.379568 -1.035392
2008-11-07 07:27:38 51°13.624 2°56.047 -999 0.069376 0.384361 -1.035392
2008-11-07 07:28:38 51°13.624 2°56.048 -999 0.068758 0.380903 -1.035392
2008-11-07 07:29:38 51°13.625 2°56.049 -999 0.068553 0.379814 -1.035392
2008-11-07 07:30:38 51°13.625 2°56.048 -999 0.068553 0.379903 -1.035392
2008-11-07 07:31:38 51°13.624 2°56.048 -999 0.06845 0.379396 -1.035392
2008-11-07 07:32:38 51°13.624 2°56.049 -999 0.067832 0.375942 -1.035392
2008-11-07 07:33:38 51°13.624 2°56.048 -999 0.067729 0.375435 -1.070216
2008-11-07 07:34:38 51°13.624 2°56.049 -999 0.067626 0.374927 -1.035392
2008-11-07 07:35:38 51°13.623 2°56.05 -999 0.067009 0.371479 -1.035392
2008-11-07 07:36:38 51°13.623 2°56.05 -999 0.066906 0.370964 -1.035392
2008-11-07 07:37:38 51°13.623 2°56.05 -999 0.066803 0.370468 -1.035392
2008-11-07 07:38:38 51°13.623 2°56.049 -999 0.066906 0.371138 -1.035392
2008-11-07 07:39:38 51°13.624 2°56.049 -999 0.066597 0.369456 -1.035392
2008-11-07 07:40:38 51°13.623 2°56.05 -999 0.066392 0.368364 -1.035392
2008-11-07 07:41:38 51°13.623 2°56.049 -999 0.065877 0.365503 -1.035392
2008-11-07 07:42:38 51°13.623 2°56.05 -999 0.06598 0.366178 -1.035392
2008-11-07 07:43:38 51°13.623 2°56.05 -999 0.065877 0.365674 -1.070216
2008-11-07 07:44:38 51°13.623 2°56.048 -999 0.065157 0.361633 -1.035392
2008-11-07 07:45:38 51°13.624 2°56.048 -999 0.06598 0.366436 -1.035392
2008-11-07 07:46:38 51°13.621 2°56.048 -999 0.06526 0.362392 -1.070216
2008-11-07 07:47:38 51°13.636 2°55.984 -999 0.062584 0.347132 -1.035392
2008-11-07 07:48:38 51°13.665 2°55.868 -999 0.06279 0.34841 -1.035392
2008-11-07 07:49:38 51°13.688 2°55.764 -999 0.066803 0.371507 -1.070216
2008-11-07 07:50:38 51°13.692 2°55.719 -999 0.073287 0.408938 -1.035392
2008-11-07 07:51:38 51°13.747 2°55.708 -999 0.073698 0.411389 -1.035392
2008-11-07 07:52:38 51°13.851 2°55.62 -999 0.064127 0.356365 -1.035392
2008-11-07 07:53:38 51°13.968 2°55.534 -999 0.064642 0.359406 -1.070216
2008-11-07 07:54:38 51°14.052 2°55.469 -999 0.064951 0.361269 -1.070216
2008-11-07 07:55:38 51°14.128 2°55.406 -999 0.067832 0.377912 -1.035392
2008-11-07 07:56:38 51°14.239 2°55.277 -999 0.069067 0.385099 -1.035392
2008-11-07 07:57:38 51°14.361 2°55.052 -999 0.058159 0.322554 -1.035392
2008-11-07 07:58:38 51°14.471 2°54.783 -999 0.053425 0.295659 -1.035392
2008-11-07 07:59:38 51°14.568 2°54.505 -999 0.05538 0.30685 -1.035392
2008-11-07 08:00:38 51°14.667 2°54.229 -999 0.056615 0.31394 -1.070216
2008-11-07 08:01:38 51°14.766 2°53.952 -999 0.054248 0.300497 -1.035392
2008-11-07 08:02:38 51°14.862 2°53.67 -999 0.059702 0.331666 -1.035392
2008-11-07 08:03:38 51°14.959 2°53.385 -999 0.057335 0.318177 -1.070216
2008-11-07 08:04:38 51°15.057 2°53.102 -999 0.054763 0.303558 -1.035392
2008-11-07 08:05:38 51°15.155 2°52.821 -999 0.055689 0.308904 -1.035392
2008-11-07 08:06:38 51°15.249 2°52.538 -999 0.058673 0.325998 -1.035392
2008-11-07 08:07:38 51°15.327 2°52.246 -999 0.054145 0.300198 -1.035392
2008-11-07 08:08:38 51°15.388 2°51.945 -999 0.052293 0.289717 -1.070216
2008-11-07 08:09:38 51°15.442 2°51.642 -999 0.055071 0.305614 -1.035392
2008-11-07 08:10:38 51°15.496 2°51.338 -999 0.054248 0.300985 -1.035392
2008-11-07 08:11:38 51°15.547 2°51.033 -999 0.053013 0.294006 -1.035392
2008-11-07 08:12:38 51°15.593 2°50.728 -999 0.053734 0.298164 -1.035392
2008-11-07 08:13:38 51°15.648 2°50.426 -999 0.054351 0.301745 -1.035392
2008-11-07 08:14:38 51°15.709 2°50.124 -999 0.052499 0.29127 -1.070216
2008-11-07 08:15:38 51°15.772 2°49.825 -999 0.052499 0.291317 -1.070216
2008-11-07 08:16:38 51°15.827 2°49.524 -999 0.051675 0.28669 -1.035392
2008-11-07 08:17:38 51°15.874 2°49.217 -999 0.052602 0.29204 -1.035392
2008-11-07 08:18:38 51°15.933 2°48.914 -999 0.051881 0.288008 -1.035392
2008-11-07 08:19:38 51°15.985 2°48.609 -999 0.051367 0.285128 -1.035392
2008-11-07 08:20:38 51°16.035 2°48.303 -999 0.050235 0.278763 -1.070216
2008-11-07 08:21:38 51°16.08 2°47.997 -999 0.04972 0.2759 -1.035392
2008-11-07 08:22:38 51°16.113 2°47.689 -999 0.051058 0.283584 -1.070216
2008-11-07 08:23:38 51°16.154 2°47.383 -999 0.049823 0.27664 -1.070216
2008-11-07 08:24:38 51°16.19 2°47.076 -999 0.047045 0.26089 -1.070216
2008-11-07 08:25:38 51°16.228 2°46.771 -999 0.049823 0.276784 -1.035392
2008-11-07 08:26:38 51°16.271 2°46.466 -999 0.049103 0.272726 -1.035392
2008-11-07 08:27:38 51°16.325 2°46.164 -999 0.050852 0.282793 -1.035392
2008-11-07 08:28:38 51°16.401 2°45.867 -999 0.050132 0.2788 -1.035392
2008-11-07 08:29:38 51°16.503 2°45.587 -999 0.052602 0.293003 -1.035392
2008-11-07 08:30:38 51°16.642 2°45.342 -999 0.049 0.272504 -1.070216
2008-11-07 08:31:38 51°16.799 2°45.121 -999 0.055689 0.310918 -1.070216
2008-11-07 08:32:38 51°16.955 2°44.899 -999 0.050235 0.279781 -1.070216
2008-11-07 08:33:38 51°17.119 2°44.69 -999 0.049926 0.278153 -1.070216
2008-11-07 08:34:38 51°17.285 2°44.486 -999 0.052087 0.290549 -1.070216
2008-11-07 08:35:38 51°17.45 2°44.281 -999 0.054969 0.307252 -1.070216
2008-11-07 08:36:38 51°17.613 2°44.074 -999 0.05219 0.291419 -1.035392
2008-11-07 08:37:38 51°17.775 2°43.865 -999 0.048897 0.272655 -1.070216
2008-11-07 08:38:38 51°17.934 2°43.657 -999 0.054557 0.305236 -1.070216
2008-11-07 08:39:38 51°18.094 2°43.45 -999 0.049617 0.277052 -1.070216
2008-11-07 08:40:38 51°18.259 2°43.244 -999 0.051881 0.29024 -1.035392
2008-11-07 08:41:38 51°18.412 2°43.015 -999 0.050235 0.28087 -1.070216
2008-11-07 08:42:38 51°18.546 2°42.762 -999 0.049926 0.279205 -1.070216
2008-11-07 08:43:38 51°18.636 2°42.473 -999 0.050955 0.285243 -1.035392
2008-11-07 08:44:38 51°18.708 2°42.171 -999 0.050749 0.284169 -1.070216
2008-11-07 08:45:38 51°18.787 2°41.873 -999 0.047559 0.266063 -1.070216
2008-11-07 08:46:38 51°18.87 2°41.579 -999 0.046736 0.261412 -1.070216
2008-11-07 08:47:38 51°18.954 2°41.286 -999 0.050235 0.281685 -1.070216
2008-11-07 08:48:38 51°19.04 2°40.993 -999 0.050338 0.282329 -1.070216
2008-11-07 08:49:38 51°19.123 2°40.7 -999 0.047868 0.268272 -1.070216
2008-11-07 08:50:38 51°19.208 2°40.409 -999 0.050749 0.285173 -1.035392
2008-11-07 08:51:38 51°19.293 2°40.116 -999 0.050543 0.284111 -1.035392
2008-11-07 08:52:38 51°19.375 2°39.818 -999 0.049 0.275428 -1.035392
2008-11-07 08:53:38 51°19.457 2°39.519 -999 0.04828 0.27138 -1.035392
2008-11-07 08:54:38 51°19.536 2°39.221 -999 0.049103 0.276188 -1.035392
2008-11-07 08:55:38 51°19.606 2°38.919 -999 0.049 0.27566 -1.070216
2008-11-07 08:56:38 51°19.675 2°38.614 -999 0.051984 0.293304 -1.035392
2008-11-07 08:57:38 51°19.74 2°38.308 -999 0.046839 0.263512 -1.035392
2008-11-07 08:58:38 51°19.784 2°37.996 -999 0.046839 0.263642 -1.035392
2008-11-07 08:59:38 51°19.825 2°37.696 -999 0.046324 0.260862 -1.070216
2008-11-07 09:00:38 51°19.86 2°37.443 -999 0.05291 0.298901 -1.035392
2008-11-07 09:01:38 51°19.886 2°37.302 -999 0.060629 0.344652 -1.035392
2008-11-07 09:02:38 51°19.907 2°37.204 -999 0.05394 0.305564 -1.035392
2008-11-07 09:03:38 51°19.932 2°37.098 -999 0.051676 0.29255 -1.070216
2008-11-07 09:04:38 51°19.965 2°37.012 -999 0.053631 0.30407 -1.035392
2008-11-07 09:05:38 51°19.988 2°36.969 -999 0.053734 0.30475 -1.035392
2008-11-07 09:06:38 51°20.008 2°36.947 -999 0.049 0.277294 -1.035392
2008-11-07 09:07:38 51°20.028 2°36.932 -999 0.048794 0.276176 -1.035392
2008-11-07 09:08:38 51°20.047 2°36.922 -999 0.050544 0.286372 -1.070216
2008-11-07 09:09:38 51°20.067 2°36.914 -999 0.050544 0.286472 -1.035392
2008-11-07 09:10:38 51°20.086 2°36.905 -999 0.04972 0.282069 -1.035392
2008-11-07 09:11:38 51°20.105 2°36.899 -999 0.04972 0.282153 -1.070216
2008-11-07 09:12:38 51°20.125 2°36.895 -999 0.052087 0.295806 -1.035392
2008-11-07 09:13:38 51°20.146 2°36.894 -999 0.050338 0.286081 -1.070216
2008-11-07 09:14:38 51°20.169 2°36.889 -999 0.050955 0.289789 -1.035392
2008-11-07 09:15:38 51°20.227 2°36.844 -999 0.048794 0.277362 -1.035392
2008-11-07 09:16:38 51°20.281 2°36.952 -999 0.072052 0.414802 -1.035392
2008-11-07 09:17:38 51°20.22 2°37.025 -999 0.451085 2.853035 -1.035392
2008-11-07 09:18:38 51°20.115 2°37.038 -999 0.113733 0.667236 -1.035392
2008-11-07 09:19:38 51°20.003 2°37.069 -999 0.060835 0.348225 -1.035392
2008-11-07 09:20:38 51°19.952 2°37.025 -999 0.066392 0.382005 -1.035392
2008-11-07 09:21:38 51°19.951 2°36.965 -999 0.06207 0.356672 -1.035392
2008-11-07 09:22:38 51°19.962 2°36.924 -999 0.054866 0.313946 -1.035392
2008-11-07 09:23:38 51°19.981 2°36.912 -999 0.051881 0.296503 -1.035392
2008-11-07 09:24:38 51°20.003 2°36.91 -999 0.050955 0.291091 -1.035392
2008-11-07 09:25:38 51°20.027 2°36.911 -999 0.053631 0.306763 -1.035392
2008-11-07 09:26:38 51°20.051 2°36.908 -999 0.050029 0.285823 -1.035392
2008-11-07 09:27:38 51°20.074 2°36.903 -999 0.052396 0.299831 -1.035392
2008-11-07 09:28:38 51°20.094 2°36.898 -999 0.052602 0.301065 -1.035392
2008-11-07 09:29:38 51°20.115 2°36.897 -999 0.052808 0.302237 -1.035392
2008-11-07 09:30:38 51°20.138 2°36.899 -999 0.052602 0.301343 -1.035392
2008-11-07 09:31:38 51°20.16 2°36.903 -999 0.051367 0.294276 -1.035392
2008-11-07 09:32:38 51°20.182 2°36.91 -999 0.051367 0.294326 -1.035392
2008-11-07 09:33:38 51°20.206 2°36.92 -999 0.055277 0.317555 -1.035392
2008-11-07 09:34:38 51°20.229 2°36.933 -999 0.051676 0.296368 -1.035392
2008-11-07 09:35:38 51°20.253 2°36.947 -999 0.050749 0.290903 -1.035392
2008-11-07 09:36:38 51°20.275 2°36.961 -999 0.052087 0.299061 -1.035392
2008-11-07 09:37:38 51°20.298 2°36.966 -999 0.055895 0.321745 -1.035392
2008-11-07 09:38:38 51°20.298 2°36.919 -999 0.052911 0.304085 -1.035392
2008-11-07 09:39:38 51°20.25 2°36.917 -999 0.050132 0.287624 -1.035392
2008-11-07 09:40:38 51°20.21 2°36.944 -999 0.051676 0.296843 -1.035392
2008-11-07 09:41:38 51°20.187 2°36.96 -999 0.051676 0.296916 -1.035392
2008-11-07 09:42:38 51°20.167 2°36.957 -999 0.05147 0.295857 -1.035392
2008-11-07 09:43:38 51°20.157 2°36.928 -999 0.049823 0.286231 -1.035392
2008-11-07 09:44:38 51°20.164 2°36.909 -999 0.053219 0.306543 -1.035392
2008-11-07 09:45:38 51°20.181 2°36.899 -999 0.05219 0.30052 -1.035392
2008-11-07 09:46:38 51°20.203 2°36.896 -999 0.049206 0.282983 -1.035392
2008-11-07 09:47:38 51°20.226 2°36.901 -999 0.050029 0.287886 -1.035392
2008-11-07 09:48:38 51°20.248 2°36.91 -999 0.051367 0.295898 -1.035392
2008-11-07 09:49:38 51°20.269 2°36.919 -999 0.049617 0.285512 -1.035392
2008-11-07 09:50:38 51°20.291 2°36.926 -999 0.050852 0.292973 -1.035392
2008-11-07 09:51:38 51°20.315 2°36.933 -999 0.051573 0.297399 -1.035392
2008-11-07 09:52:38 51°20.338 2°36.94 -999 0.05147 0.29689 -1.035392
2008-11-07 09:53:38 51°20.347 2°36.9 -999 0.055792 0.322831 -1.035392
2008-11-07 09:54:38 51°20.31 2°36.876 -999 0.057027 0.330122 -1.035392
2008-11-07 09:55:38 51°20.237 2°36.917 -999 0.055072 0.318422 -1.035392
2008-11-07 09:56:38 51°20.207 2°36.956 -999 0.060629 0.351652 -1.035392
2008-11-07 09:57:38 51°20.212 2°36.967 -999 0.059188 0.3434 -1.035392
2008-11-07 09:58:38 51°20.226 2°36.973 -999 0.062687 0.364391 -1.035392
2008-11-07 09:59:38 51°20.251 2°36.979 -999 0.061658 0.358324 -1.035392
2008-11-07 10:00:38 51°20.283 2°36.988 -999 0.062584 0.364945 -1.035392
2008-11-07 10:01:38 51°20.312 2°37.005 -999 0.056615 0.328924 -1.035392
2008-11-07 10:02:38 51°20.334 2°37.022 -999 0.055895 0.324636 -1.035392
2008-11-07 10:03:38 51°20.356 2°37.034 -999 0.0596 0.346889 -1.035392
2008-11-07 10:04:38 51°20.379 2°37.042 -999 0.058674 0.3414 -1.035392
2008-11-07 10:05:38 51°20.401 2°37.048 -999 0.057027 0.331542 -1.035392
2008-11-07 10:06:38 51°20.423 2°37.053 -999 0.054043 0.313762 -1.035392
2008-11-07 10:07:38 51°20.446 2°37.059 -999 0.057439 0.33428 -1.035392
2008-11-07 10:08:38 51°20.469 2°37.063 -999 0.060629 0.35355 -1.035392
2008-11-07 10:09:38 51°20.468 2°37.003 -999 0.084916 0.501374 -1.035392
2008-11-07 10:10:38 51°20.376 2°36.982 -999 0.058468 0.340499 -1.035392
2008-11-07 10:11:38 51°20.276 2°36.999 -999 0.055998 0.325908 -1.035392
2008-11-07 10:12:38 51°20.206 2°36.987 -999 0.055689 0.324206 -1.035392
2008-11-07 10:13:38 51°20.181 2°36.979 -999 0.059909 0.349666 -1.035392
2008-11-07 10:14:38 51°20.19 2°36.964 -999 0.061144 0.357567 -1.035392
2008-11-07 10:15:38 51°20.208 2°36.953 -999 0.058879 0.343874 -1.035392
2008-11-07 10:16:38 51°20.228 2°36.947 -999 0.054557 0.31811 -1.035392
2008-11-07 10:17:38 51°20.249 2°36.942 -999 0.059188 0.345908 -1.035392
2008-11-07 10:18:38 51°20.268 2°36.939 -999 0.053425 0.311343 -1.035392
2008-11-07 10:19:38 51°20.287 2°36.936 -999 0.054351 0.317026 -1.035392
2008-11-07 10:20:38 51°20.307 2°36.937 -999 0.057233 0.334429 -1.035392
2008-11-07 10:21:38 51°20.328 2°36.939 -999 0.058879 0.344573 -1.035392
2008-11-07 10:22:38 51°20.35 2°36.941 -999 0.058056 0.339675 -1.035392
2008-11-07 10:23:38 51°20.372 2°36.946 -999 0.052705 0.307603 -1.035392
2008-11-07 10:24:38 51°20.394 2°36.949 -999 0.055689 0.325548 -1.035392
2008-11-07 10:25:38 51°20.415 2°36.95 -999 0.054249 0.317001 -1.035392
2008-11-07 10:26:38 51°20.437 2°36.952 -999 0.063716 0.374664 -1.035392
2008-11-07 10:27:38 51°20.458 2°36.953 -999 0.061967 0.363761 -1.035392
2008-11-07 10:28:38 51°20.479 2°36.956 -999 0.054866 0.321429 -1.035392
2008-11-07 10:29:38 51°20.501 2°36.961 -999 0.051161 0.299038 -1.035392
2008-11-07 10:30:38 51°20.523 2°36.965 -999 0.056615 0.331981 -1.035392
2008-11-07 10:31:38 51°20.544 2°36.968 -999 0.059085 0.347042 -1.035392
2008-11-07 10:32:38 51°20.565 2°36.971 -999 0.053734 0.314659 -1.035392
2008-11-07 10:33:38 51°20.586 2°36.974 -999 0.052499 0.307405 -1.035392
2008-11-07 10:34:38 51°20.609 2°36.978 -999 0.055895 0.327938 -1.035392
2008-11-07 10:35:38 51°20.63 2°36.981 -999 0.054557 0.320075 -1.035392
2008-11-07 10:36:38 51°20.651 2°36.984 -999 0.053425 0.313216 -1.035392
2008-11-07 10:37:38 51°20.672 2°36.987 -999 0.05394 0.316441 -1.035392
2008-11-07 10:38:38 51°20.695 2°36.986 -999 0.058159 0.342082 -1.035392
2008-11-07 10:39:38 51°20.693 2°36.932 -999 0.071538 0.424022 -1.035392
2008-11-07 10:40:38 51°20.629 2°36.914 -999 0.053014 0.310997 -1.035392
2008-11-07 10:41:38 51°20.511 2°36.943 -999 0.067421 0.398701 -1.035392
2008-11-07 10:42:38 51°20.383 2°36.942 -999 0.061864 0.364806 -1.035392
2008-11-07 10:43:38 51°20.286 2°36.916 -999 0.065466 0.387107 -1.035392
2008-11-07 10:44:38 51°20.269 2°36.866 -999 0.066598 0.394383 -1.035392
2008-11-07 10:45:38 51°20.27 2°36.815 -999 0.060938 0.359905 -1.035392
2008-11-07 10:46:38 51°20.28 2°36.771 -999 0.060629 0.357937 -1.035392
2008-11-07 10:47:38 51°20.293 2°36.742 -999 0.05466 0.322126 -1.035392
2008-11-07 10:48:38 51°20.308 2°36.725 -999 0.044163 0.258605 -1.035392
2008-11-07 10:49:38 51°20.326 2°36.716 -999 0.077815 0.464586 -0.965744
2008-11-07 10:50:38 51°20.346 2°36.714 -999 0.053631 0.316144 -0.965744
2008-11-07 10:51:38 51°20.367 2°36.717 -999 0.05147 0.30315 -0.93092
2008-11-07 10:52:38 51°20.386 2°36.724 -999 0.046633 0.273978 -0.965744
2008-11-07 10:53:38 51°20.404 2°36.729 -999 0.050235 0.295812 -0.965744
2008-11-07 10:54:38 51°20.424 2°36.736 -999 0.049823 0.293364 -0.965744
2008-11-07 10:55:38 51°20.443 2°36.742 -999 0.048794 0.287168 -0.965744
2008-11-07 10:56:38 51°20.463 2°36.748 -999 0.046633 0.274069 -0.965744
2008-11-07 10:57:38 51°20.482 2°36.752 -999 0.045604 0.267944 -0.965744
2008-11-07 10:58:38 51°20.503 2°36.756 -999 0.045604 0.26797 -0.965744
2008-11-07 10:59:38 51°20.524 2°36.761 -999 0.049823 0.293525 -0.965744
2008-11-07 11:00:38 51°20.545 2°36.765 -999 0.048794 0.287347 -0.965744
2008-11-07 11:01:38 51°20.549 2°36.713 -999 0.067215 0.399759 -1.174688
2008-11-07 11:02:38 51°20.514 2°36.688 -999 0.060938 0.361316 -1.174688
2008-11-07 11:03:38 51°20.496 2°36.769 -999 0.068039 0.404926 -1.174688
2008-11-07 11:04:38 51°20.465 2°36.888 -999 0.099325 0.601103 -1.139864
2008-11-07 11:05:38 51°20.412 2°37.059 -999 0.078639 0.470961 -1.174688
2008-11-07 11:06:38 51°20.346 2°37.268 -999 0.075037 0.449005 -1.174688
2008-11-07 11:07:38 51°20.246 2°37.468 -999 0.070303 0.420023 -1.174688
2008-11-07 11:08:38 51°20.13 2°37.666 -999 0.061041 0.363576 -1.174688
2008-11-07 11:09:38 51°20.012 2°37.865 -999 0.063305 0.377714 -1.174688
2008-11-07 11:10:38 51°19.896 2°38.068 -999 0.069274 0.41414 -1.174688
2008-11-07 11:11:38 51°19.782 2°38.273 -999 0.068965 0.412294 -1.174688
2008-11-07 11:12:38 51°19.668 2°38.48 -999 0.064437 0.384741 -1.174688
2008-11-07 11:13:38 51°19.555 2°38.689 -999 0.060938 0.363137 -1.174688
2008-11-07 11:14:38 51°19.448 2°38.902 -999 0.074625 0.447672 -1.174688
2008-11-07 11:15:38 51°19.34 2°39.111 -999 0.064437 0.384549 -1.174688
2008-11-07 11:16:38 51°19.229 2°39.317 -999 0.069171 0.41394 -1.174688
2008-11-07 11:17:38 51°19.116 2°39.525 -999 0.068759 0.411824 -1.174688
2008-11-07 11:18:38 51°19.004 2°39.733 -999 0.088827 0.537536 -1.174688
2008-11-07 11:19:38 51°18.89 2°39.937 -999 0.093047 0.563831 -1.174688
2008-11-07 11:20:38 51°18.777 2°40.146 -999 0.090783 0.549811 -1.209513
2008-11-07 11:21:38 51°18.665 2°40.357 -999 0.072052 0.432549 -1.174688
2008-11-07 11:22:38 51°18.552 2°40.56 -999 0.098605 0.599823 -1.174688
2008-11-07 11:23:38 51°18.436 2°40.762 -999 0.072052 0.432974 -1.174688
2008-11-07 11:24:38 51°18.325 2°40.97 -999 0.073493 0.441849 -1.209513
2008-11-07 11:25:38 51°18.214 2°41.18 -999 0.067216 0.403049 -1.174688
2008-11-07 11:26:38 51°18.103 2°41.391 -999 0.06454 0.386531 -1.209513
2008-11-07 11:27:38 51°17.989 2°41.61 -999 0.067113 0.402531 -1.209513
2008-11-07 11:28:38 51°17.868 2°41.844 -999 0.080183 0.484322 -1.209513
2008-11-07 11:29:38 51°17.757 2°42.096 -999 0.061247 0.366342 -1.209513
2008-11-07 11:30:38 51°17.651 2°42.356 -999 0.069685 0.418693 -1.209513
2008-11-07 11:31:38 51°17.547 2°42.616 -999 0.066701 0.400383 -1.174688
2008-11-07 11:32:38 51°17.442 2°42.876 -999 0.064231 0.385172 -1.209513
2008-11-07 11:33:38 51°17.338 2°43.129 -999 0.08574 0.519821 -1.209513
2008-11-07 11:34:38 51°17.233 2°43.385 -999 0.078639 0.475005 -1.209513
2008-11-07 11:35:38 51°17.123 2°43.641 -999 0.0808 0.488689 -1.209513
2008-11-07 11:36:38 51°17.016 2°43.898 -999 0.076169 0.459887 -1.209513
2008-11-07 11:37:38 51°16.908 2°44.156 -999 0.061144 0.366349 -1.209513
2008-11-07 11:38:38 51°16.799 2°44.415 -999 0.074317 0.448649 -1.209513
2008-11-07 11:39:38 51°16.693 2°44.676 -999 0.083476 0.506027 -1.209513
2008-11-07 11:40:38 51°16.587 2°44.936 -999 0.086666 0.526258 -1.209513
2008-11-07 11:41:38 51°16.508 2°45.22 -999 0.087593 0.532379 -1.209513
2008-11-07 11:42:38 51°16.434 2°45.508 -999 0.064951 0.390362 -1.209513
2008-11-07 11:43:38 51°16.357 2°45.793 -999 0.066701 0.401139 -1.209513
2008-11-07 11:44:38 51°16.277 2°46.074 -999 0.096855 0.590945 -1.209513
2008-11-07 11:45:38 51°16.199 2°46.359 -999 0.084093 0.5103 -1.209513
2008-11-07 11:46:38 51°16.119 2°46.645 -999 0.097884 0.597853 -1.209513
2008-11-07 11:47:38 51°16.035 2°46.929 -999 0.085328 0.518126 -1.209513
2008-11-07 11:48:38 51°15.954 2°47.214 -999 0.071744 0.432855 -1.209513
2008-11-07 11:49:38 51°15.873 2°47.498 -999 0.072258 0.436172 -1.209513
2008-11-07 11:50:38 51°15.808 2°47.79 -999 0.095723 0.584319 -1.209513
2008-11-07 11:51:38 51°15.746 2°48.083 -999 0.076992 0.465846 -1.209513
2008-11-07 11:52:38 51°15.683 2°48.375 -999 0.067524 0.406553 -1.209513
2008-11-07 11:53:38 51°15.616 2°48.667 -999 0.100869 0.616967 -1.209513
2008-11-07 11:54:38 51°15.552 2°48.961 -999 0.085225 0.517623 -1.209513
2008-11-07 11:55:38 51°15.483 2°49.254 -999 0.09387 0.572394 -1.209513
2008-11-07 11:56:38 51°15.42 2°49.548 -999 0.074625 0.450955 -1.209513
2008-11-07 11:57:38 51°15.358 2°49.841 -999 0.074522 0.450292 -1.209513
2008-11-07 11:58:38 51°15.295 2°50.138 -999 0.084299 0.511847 -1.209513
2008-11-07 11:59:38 51°15.24 2°50.436 -999 0.07267 0.438757 -1.244337
2008-11-07 12:00:38 51°15.184 2°50.733 -999 0.069068 0.416244 -1.209513
2008-11-07 12:01:38 51°15.119 2°51.027 -999 0.072567 0.438166 -1.209513
2008-11-07 12:02:38 51°15.06 2°51.324 -999 0.069068 0.416302 -1.244337
2008-11-07 12:03:38 51°15.004 2°51.62 -999 0.068553 0.413123 -1.209513
2008-11-07 12:04:38 51°14.943 2°51.912 -999 0.071435 0.431176 -1.209513
2008-11-07 12:05:38 51°14.895 2°52.208 -999 0.064437 0.38752 -1.209513
2008-11-07 12:06:38 51°14.854 2°52.506 -999 0.060938 0.365784 -1.209513
2008-11-07 12:07:38 51°14.805 2°52.803 -999 0.061967 0.37221 -1.209513
2008-11-07 12:08:38 51°14.762 2°53.102 -999 0.065878 0.396587 -1.209513
2008-11-07 12:09:38 51°14.718 2°53.403 -999 0.066084 0.397902 -1.209513
2008-11-07 12:10:38 51°14.675 2°53.705 -999 0.064643 0.388941 -1.244337
2008-11-07 12:11:38 51°14.633 2°54.007 -999 0.065466 0.394117 -1.244337
2008-11-07 12:12:38 51°14.585 2°54.306 -999 0.064951 0.390943 -1.209513
2008-11-07 12:13:38 51°14.521 2°54.595 -999 0.076581 0.463785 -1.244337
2008-11-07 12:14:38 51°14.435 2°54.871 -999 0.071332 0.430871 -1.209513
2008-11-07 12:15:38 51°14.33 2°55.133 -999 0.069171 0.417382 -1.244337
2008-11-07 12:16:38 51°14.202 2°55.34 -999 0.065672 0.395575 -1.244337
2008-11-07 12:17:38 51°14.111 2°55.42 -999 0.083064 0.504841 -1.244337
2008-11-07 12:18:38 51°14.034 2°55.481 -999 0.075243 0.455581 -1.209513
2008-11-07 12:19:38 51°13.94 2°55.55 -999 0.074728 0.452385 -1.244337
2008-11-07 12:20:38 51°13.83 2°55.631 -999 0.070818 0.4279 -1.209513
2008-11-07 12:21:38 51°13.743 2°55.727 -999 0.071744 0.433747 -1.209513
2008-11-07 12:22:38 51°13.678 2°55.845 -999 0.073493 0.444757 -1.244337
2008-11-07 12:23:38 51°13.64 2°55.943 -999 0.071641 0.433172 -1.244337
2008-11-07 12:24:38 51°13.626 2°56.027 -999 0.064025 0.385593 -1.244337
2008-11-07 12:25:38 51°13.623 2°56.045 -999 0.075963 0.460379 -1.244337
2008-11-07 12:26:38 51°13.623 2°56.047 -999 0.072155 0.436495 -1.244337
2008-11-07 12:27:38 51°13.623 2°56.047 -999 0.068245 0.412033 -1.244337